sensor_id;sensor_type;location;lat;lon;timestamp;pressure;altitude;pressure_sealevel;temperature;humidity
51926;BME280;37952;51.938;15.480;2023-05-14T00:01:36;100306.70;;;15.19;39.09
51926;BME280;37952;51.938;15.480;2023-05-14T00:04:39;100298.34;;;15.17;39.16
51926;BME280;37952;51.938;15.480;2023-05-14T00:07:42;100294.58;;;15.15;39.27
51926;BME280;37952;51.938;15.480;2023-05-14T00:10:45;100293.50;;;15.13;39.06
51926;BME280;37952;51.938;15.480;2023-05-14T00:13:49;100287.88;;;15.09;39.24
51926;BME280;37952;51.938;15.480;2023-05-14T00:16:52;100287.35;;;15.06;39.29
51926;BME280;37952;51.938;15.480;2023-05-14T00:19:55;100281.45;;;15.05;39.29
51926;BME280;37952;51.938;15.480;2023-05-14T00:22:57;100281.74;;;15.03;39.43
51926;BME280;37952;51.938;15.480;2023-05-14T00:26:00;100275.25;;;15.02;39.43
51926;BME280;37952;51.938;15.480;2023-05-14T00:29:03;100276.59;;;15.01;39.57
51926;BME280;37952;51.938;15.480;2023-05-14T00:32:06;100271.94;;;14.98;39.65
51926;BME280;37952;51.938;15.480;2023-05-14T00:35:09;100273.14;;;14.97;39.64
51926;BME280;37952;51.938;15.480;2023-05-14T00:38:11;100269.55;;;14.95;39.69
51926;BME280;37952;51.938;15.480;2023-05-14T00:41:18;100272.14;;;14.93;39.85
51926;BME280;37952;51.938;15.480;2023-05-14T00:44:21;100272.38;;;14.92;39.89
51926;BME280;37952;51.938;15.480;2023-05-14T00:47:23;100271.56;;;14.91;40.06
51926;BME280;37952;51.938;15.480;2023-05-14T00:50:26;100270.05;;;14.90;40.10
51926;BME280;37952;51.938;15.480;2023-05-14T00:53:29;100268.34;;;14.89;39.92
51926;BME280;37952;51.938;15.480;2023-05-14T00:56:33;100267.92;;;14.87;40.21
51926;BME280;37952;51.938;15.480;2023-05-14T00:59:36;100271.15;;;14.84;40.13
51926;BME280;37952;51.938;15.480;2023-05-14T01:02:42;100266.30;;;14.83;40.17
51926;BME280;37952;51.938;15.480;2023-05-14T01:05:57;100267.30;;;14.81;40.25
51926;BME280;37952;51.938;15.480;2023-05-14T01:10:00;100263.54;;;14.79;40.29
51926;BME280;37952;51.938;15.480;2023-05-14T01:15:45;100263.49;;;14.77;40.15
51926;BME280;37952;51.938;15.480;2023-05-14T01:18:49;100269.56;;;14.76;40.26
51926;BME280;37952;51.938;15.480;2023-05-14T01:21:53;100267.41;;;14.74;40.37
51926;BME280;37952;51.938;15.480;2023-05-14T01:24:55;100262.91;;;14.72;40.39
51926;BME280;37952;51.938;15.480;2023-05-14T01:28:05;100263.73;;;14.71;40.35
51926;BME280;37952;51.938;15.480;2023-05-14T01:31:17;100261.48;;;14.67;40.48
51926;BME280;37952;51.938;15.480;2023-05-14T01:34:27;100241.92;;;14.52;40.35
51926;BME280;37952;51.938;15.480;2023-05-14T01:37:31;100257.55;;;14.62;40.48
51926;BME280;37952;51.938;15.480;2023-05-14T01:40:35;100252.59;;;14.60;40.75
51926;BME280;37952;51.938;15.480;2023-05-14T01:43:38;100248.84;;;14.57;40.46
51926;BME280;37952;51.938;15.480;2023-05-14T01:46:40;100248.91;;;14.54;40.72
51926;BME280;37952;51.938;15.480;2023-05-14T01:49:43;100242.70;;;14.51;40.74
51926;BME280;37952;51.938;15.480;2023-05-14T01:52:46;100242.30;;;14.49;40.71
51926;BME280;37952;51.938;15.480;2023-05-14T01:55:49;100243.34;;;14.45;40.74
51926;BME280;37952;51.938;15.480;2023-05-14T01:58:52;100241.04;;;14.42;40.62
51926;BME280;37952;51.938;15.480;2023-05-14T02:01:55;100238.61;;;14.39;40.89
51926;BME280;37952;51.938;15.480;2023-05-14T02:04:58;100241.84;;;14.35;40.90
51926;BME280;37952;51.938;15.480;2023-05-14T02:08:00;100240.77;;;14.33;40.77
51926;BME280;37952;51.938;15.480;2023-05-14T02:11:03;100238.44;;;14.31;40.78
51926;BME280;37952;51.938;15.480;2023-05-14T02:14:06;100238.96;;;14.28;40.82
51926;BME280;37952;51.938;15.480;2023-05-14T02:17:08;100236.01;;;14.25;41.08
51926;BME280;37952;51.938;15.480;2023-05-14T02:20:11;100237.12;;;14.21;41.23
51926;BME280;37952;51.938;15.480;2023-05-14T02:23:14;100231.86;;;14.18;41.25
51926;BME280;37952;51.938;15.480;2023-05-14T02:26:17;100233.81;;;14.15;41.54
51926;BME280;37952;51.938;15.480;2023-05-14T02:29:19;100232.17;;;14.13;41.75
51926;BME280;37952;51.938;15.480;2023-05-14T02:32:22;100229.73;;;14.10;41.59
51926;BME280;37952;51.938;15.480;2023-05-14T02:35:25;100234.58;;;14.09;41.52
51926;BME280;37952;51.938;15.480;2023-05-14T02:38:27;100235.49;;;14.09;41.63
51926;BME280;37952;51.938;15.480;2023-05-14T02:41:30;100231.86;;;14.05;42.25
51926;BME280;37952;51.938;15.480;2023-05-14T02:44:33;100236.16;;;13.99;42.10
51926;BME280;37952;51.938;15.480;2023-05-14T02:47:35;100234.10;;;13.92;42.35
51926;BME280;37952;51.938;15.480;2023-05-14T02:50:39;100233.36;;;13.90;42.28
51926;BME280;37952;51.938;15.480;2023-05-14T02:53:42;100233.70;;;13.90;42.47
51926;BME280;37952;51.938;15.480;2023-05-14T02:56:44;100235.58;;;13.89;42.43
51926;BME280;37952;51.938;15.480;2023-05-14T02:59:47;100234.27;;;13.87;42.44
51926;BME280;37952;51.938;15.480;2023-05-14T03:02:50;100232.48;;;13.85;42.64
51926;BME280;37952;51.938;15.480;2023-05-14T03:05:56;100225.66;;;13.83;42.56
51926;BME280;37952;51.938;15.480;2023-05-14T03:08:59;100229.04;;;13.80;42.95
51926;BME280;37952;51.938;15.480;2023-05-14T03:12:02;100226.31;;;13.79;42.67
51926;BME280;37952;51.938;15.480;2023-05-14T03:15:05;100232.59;;;13.78;42.73
51926;BME280;37952;51.938;15.480;2023-05-14T03:18:07;100230.38;;;13.76;42.78
51926;BME280;37952;51.938;15.480;2023-05-14T03:21:10;100234.27;;;13.73;42.94
51926;BME280;37952;51.938;15.480;2023-05-14T03:24:13;100233.45;;;13.73;42.90
51926;BME280;37952;51.938;15.480;2023-05-14T03:27:15;100228.45;;;13.70;43.06
51926;BME280;37952;51.938;15.480;2023-05-14T03:30:18;100230.91;;;13.68;43.23
51926;BME280;37952;51.938;15.480;2023-05-14T03:33:21;100232.16;;;13.65;43.37
51926;BME280;37952;51.938;15.480;2023-05-14T03:36:24;100227.42;;;13.61;43.31
51926;BME280;37952;51.938;15.480;2023-05-14T03:39:27;100225.57;;;13.60;43.38
51926;BME280;37952;51.938;15.480;2023-05-14T03:42:29;100224.26;;;13.59;43.64
51926;BME280;37952;51.938;15.480;2023-05-14T03:45:32;100226.05;;;13.58;43.64
51926;BME280;37952;51.938;15.480;2023-05-14T03:48:35;100225.53;;;13.58;43.54
51926;BME280;37952;51.938;15.480;2023-05-14T03:51:38;100218.73;;;13.59;43.50
51926;BME280;37952;51.938;15.480;2023-05-14T03:54:45;100220.88;;;13.59;43.71
51926;BME280;37952;51.938;15.480;2023-05-14T03:57:48;100216.71;;;13.60;43.61
51926;BME280;37952;51.938;15.480;2023-05-14T04:04:06;100218.23;;;13.61;43.37
51926;BME280;37952;51.938;15.480;2023-05-14T04:07:09;100216.73;;;13.60;43.50
51926;BME280;37952;51.938;15.480;2023-05-14T04:10:12;100214.33;;;13.59;43.84
51926;BME280;37952;51.938;15.480;2023-05-14T04:13:15;100215.72;;;13.56;43.86
51926;BME280;37952;51.938;15.480;2023-05-14T04:16:17;100209.25;;;13.55;43.92
51926;BME280;37952;51.938;15.480;2023-05-14T04:19:20;100208.74;;;13.55;43.92
51926;BME280;37952;51.938;15.480;2023-05-14T04:22:23;100206.34;;;13.54;44.24
51926;BME280;37952;51.938;15.480;2023-05-14T04:25:26;100206.58;;;13.53;44.09
51926;BME280;37952;51.938;15.480;2023-05-14T04:28:28;100206.27;;;13.52;44.03
51926;BME280;37952;51.938;15.480;2023-05-14T04:31:31;100206.39;;;13.53;44.30
51926;BME280;37952;51.938;15.480;2023-05-14T04:34:34;100205.44;;;13.54;44.26
51926;BME280;37952;51.938;15.480;2023-05-14T04:37:37;100205.05;;;13.55;44.26
51926;BME280;37952;51.938;15.480;2023-05-14T04:40:40;100207.20;;;13.57;44.28
51926;BME280;37952;51.938;15.480;2023-05-14T04:43:45;100206.58;;;13.58;44.22
51926;BME280;37952;51.938;15.480;2023-05-14T04:46:48;100204.75;;;13.59;44.33
51926;BME280;37952;51.938;15.480;2023-05-14T04:49:51;100204.33;;;13.60;44.54
51926;BME280;37952;51.938;15.480;2023-05-14T04:52:54;100198.13;;;13.63;44.70
51926;BME280;37952;51.938;15.480;2023-05-14T04:55:57;100195.78;;;13.66;44.62
51926;BME280;37952;51.938;15.480;2023-05-14T04:58:59;100191.52;;;13.69;44.69
51926;BME280;37952;51.938;15.480;2023-05-14T05:02:02;100194.11;;;13.73;44.74
51926;BME280;37952;51.938;15.480;2023-05-14T05:05:05;100188.07;;;13.76;44.90
51926;BME280;37952;51.938;15.480;2023-05-14T05:08:08;100193.58;;;13.78;44.62
51926;BME280;37952;51.938;15.480;2023-05-14T05:11:12;100191.14;;;13.80;44.61
51926;BME280;37952;51.938;15.480;2023-05-14T05:14:15;100193.18;;;13.84;44.69
51926;BME280;37952;51.938;15.480;2023-05-14T05:17:18;100195.44;;;13.87;44.72
51926;BME280;37952;51.938;15.480;2023-05-14T05:20:21;100195.91;;;13.91;44.50
51926;BME280;37952;51.938;15.480;2023-05-14T05:23:24;100196.36;;;13.95;44.87
51926;BME280;37952;51.938;15.480;2023-05-14T05:26:27;100199.54;;;13.98;44.89
51926;BME280;37952;51.938;15.480;2023-05-14T05:29:30;100195.13;;;14.00;44.73
51926;BME280;37952;51.938;15.480;2023-05-14T05:32:33;100191.85;;;14.04;44.57
51926;BME280;37952;51.938;15.480;2023-05-14T05:35:36;100187.25;;;14.06;44.68
51926;BME280;37952;51.938;15.480;2023-05-14T05:38:39;100189.17;;;14.12;44.64
51926;BME280;37952;51.938;15.480;2023-05-14T05:41:41;100185.84;;;14.17;44.67
51926;BME280;37952;51.938;15.480;2023-05-14T05:44:45;100183.98;;;14.21;44.71
51926;BME280;37952;51.938;15.480;2023-05-14T05:47:47;100181.01;;;14.22;44.79
51926;BME280;37952;51.938;15.480;2023-05-14T05:50:50;100181.19;;;14.22;44.98
51926;BME280;37952;51.938;15.480;2023-05-14T05:53:53;100183.09;;;14.23;45.01
51926;BME280;37952;51.938;15.480;2023-05-14T05:56:55;100182.09;;;14.25;44.96
51926;BME280;37952;51.938;15.480;2023-05-14T05:59:58;100186.01;;;14.27;45.13
51926;BME280;37952;51.938;15.480;2023-05-14T06:03:01;100178.96;;;14.32;45.10
51926;BME280;37952;51.938;15.480;2023-05-14T06:06:03;100172.30;;;14.36;45.19
51926;BME280;37952;51.938;15.480;2023-05-14T06:09:06;100171.86;;;14.40;45.35
51926;BME280;37952;51.938;15.480;2023-05-14T06:12:10;100171.93;;;14.44;45.26
51926;BME280;37952;51.938;15.480;2023-05-14T06:15:13;100172.35;;;14.45;45.37
51926;BME280;37952;51.938;15.480;2023-05-14T06:18:15;100170.66;;;14.46;45.40
51926;BME280;37952;51.938;15.480;2023-05-14T06:21:18;100174.58;;;14.49;45.78
51926;BME280;37952;51.938;15.480;2023-05-14T06:24:21;100175.09;;;14.52;45.44
51926;BME280;37952;51.938;15.480;2023-05-14T06:27:24;100173.63;;;14.57;45.68
51926;BME280;37952;51.938;15.480;2023-05-14T06:30:26;100170.97;;;14.63;45.35
51926;BME280;37952;51.938;15.480;2023-05-14T06:33:29;100170.07;;;14.68;45.78
51926;BME280;37952;51.938;15.480;2023-05-14T06:36:33;100166.63;;;14.71;45.57
51926;BME280;37952;51.938;15.480;2023-05-14T06:39:36;100166.20;;;14.75;45.62
51926;BME280;37952;51.938;15.480;2023-05-14T06:42:39;100161.89;;;14.78;45.40
51926;BME280;37952;51.938;15.480;2023-05-14T06:45:41;100158.40;;;14.82;45.34
51926;BME280;37952;51.938;15.480;2023-05-14T06:48:44;100157.63;;;14.89;45.24
51926;BME280;37952;51.938;15.480;2023-05-14T06:51:47;100155.58;;;14.93;45.20
51926;BME280;37952;51.938;15.480;2023-05-14T06:54:50;100153.32;;;14.94;45.15
51926;BME280;37952;51.938;15.480;2023-05-14T06:57:56;100157.45;;;14.98;45.45
51926;BME280;37952;51.938;15.480;2023-05-14T07:00:59;100154.38;;;15.04;45.31
51926;BME280;37952;51.938;15.480;2023-05-14T07:04:02;100147.23;;;15.09;45.19
51926;BME280;37952;51.938;15.480;2023-05-14T07:07:05;100147.15;;;15.16;45.13
51926;BME280;37952;51.938;15.480;2023-05-14T07:10:07;100143.83;;;15.20;45.02
51926;BME280;37952;51.938;15.480;2023-05-14T07:13:10;100143.02;;;15.23;44.97
51926;BME280;37952;51.938;15.480;2023-05-14T07:19:34;100134.48;;;15.41;44.73
51926;BME280;37952;51.938;15.480;2023-05-14T07:22:36;100137.97;;;15.46;44.74
51926;BME280;37952;51.938;15.480;2023-05-14T07:25:39;100134.95;;;15.53;44.67
51926;BME280;37952;51.938;15.480;2023-05-14T07:28:42;100130.42;;;15.57;44.63
51926;BME280;37952;51.938;15.480;2023-05-14T07:31:44;100130.64;;;15.61;44.50
51926;BME280;37952;51.938;15.480;2023-05-14T07:34:47;100125.06;;;15.67;44.61
51926;BME280;37952;51.938;15.480;2023-05-14T07:37:50;100126.23;;;15.73;44.38
51926;BME280;37952;51.938;15.480;2023-05-14T07:40:53;100123.38;;;15.73;44.27
51926;BME280;37952;51.938;15.480;2023-05-14T07:43:55;100121.69;;;15.76;44.35
51926;BME280;37952;51.938;15.480;2023-05-14T07:46:58;100119.81;;;15.82;44.24
51926;BME280;37952;51.938;15.480;2023-05-14T07:50:01;100116.64;;;15.87;44.18
51926;BME280;37952;51.938;15.480;2023-05-14T07:53:04;100115.63;;;15.91;43.96
51926;BME280;37952;51.938;15.480;2023-05-14T07:56:07;100113.38;;;15.94;43.81
51926;BME280;37952;51.938;15.480;2023-05-14T07:59:10;100108.70;;;15.97;44.08
51926;BME280;37952;51.938;15.480;2023-05-14T08:02:13;100101.89;;;16.01;43.94
51926;BME280;37952;51.938;15.480;2023-05-14T08:05:17;100101.22;;;16.05;43.95
51926;BME280;37952;51.938;15.480;2023-05-14T08:08:20;100105.16;;;16.12;43.81
51926;BME280;37952;51.938;15.480;2023-05-14T08:11:23;100106.48;;;16.19;43.87
51926;BME280;37952;51.938;15.480;2023-05-14T08:14:25;100106.55;;;16.26;43.65
51926;BME280;37952;51.938;15.480;2023-05-14T08:17:28;100099.27;;;16.30;43.50
51926;BME280;37952;51.938;15.480;2023-05-14T08:20:31;100095.55;;;16.34;43.64
51926;BME280;37952;51.938;15.480;2023-05-14T08:23:34;100096.66;;;16.40;43.56
51926;BME280;37952;51.938;15.480;2023-05-14T08:26:37;100094.17;;;16.47;43.35
51926;BME280;37952;51.938;15.480;2023-05-14T08:29:43;100097.13;;;16.55;43.32
51926;BME280;37952;51.938;15.480;2023-05-14T08:32:46;100093.92;;;16.64;43.10
51926;BME280;37952;51.938;15.480;2023-05-14T08:35:54;100093.05;;;16.68;42.51
51926;BME280;37952;51.938;15.480;2023-05-14T08:38:57;100073.05;;;16.60;42.67
51926;BME280;37952;51.938;15.480;2023-05-14T08:42:00;100083.64;;;16.75;42.61
51926;BME280;37952;51.938;15.480;2023-05-14T08:49:28;100082.93;;;16.87;42.65
51926;BME280;37952;51.938;15.480;2023-05-14T08:52:35;100080.48;;;16.96;42.40
51926;BME280;37952;51.938;15.480;2023-05-14T08:55:37;100078.16;;;17.00;42.38
51926;BME280;37952;51.938;15.480;2023-05-14T08:58:40;100076.88;;;17.05;42.10
51926;BME280;37952;51.938;15.480;2023-05-14T09:01:45;100073.59;;;17.13;42.31
51926;BME280;37952;51.938;15.480;2023-05-14T09:04:54;100067.45;;;17.21;42.44
51926;BME280;37952;51.938;15.480;2023-05-14T09:07:57;100071.25;;;17.28;42.13
51926;BME280;37952;51.938;15.480;2023-05-14T09:11:00;100068.23;;;17.35;41.97
51926;BME280;37952;51.938;15.480;2023-05-14T09:14:03;100075.17;;;17.41;41.94
51926;BME280;37952;51.938;15.480;2023-05-14T09:17:06;100069.64;;;17.54;41.73
51926;BME280;37952;51.938;15.480;2023-05-14T09:20:11;100069.10;;;17.56;41.58
51926;BME280;37952;51.938;15.480;2023-05-14T09:23:14;100062.08;;;17.65;41.44
51926;BME280;37952;51.938;15.480;2023-05-14T09:26:16;100060.92;;;17.73;41.00
51926;BME280;37952;51.938;15.480;2023-05-14T09:29:20;100071.95;;;17.77;41.20
51926;BME280;37952;51.938;15.480;2023-05-14T09:32:23;100066.86;;;17.87;41.07
51926;BME280;37952;51.938;15.480;2023-05-14T09:35:25;100061.80;;;17.98;40.51
51926;BME280;37952;51.938;15.480;2023-05-14T09:38:32;100057.04;;;18.05;39.86
51926;BME280;37952;51.938;15.480;2023-05-14T09:41:35;100048.67;;;18.16;39.75
51926;BME280;37952;51.938;15.480;2023-05-14T09:44:40;100047.71;;;18.25;39.48
51926;BME280;37952;51.938;15.480;2023-05-14T09:47:43;100046.78;;;18.34;39.23
51926;BME280;37952;51.938;15.480;2023-05-14T09:50:47;100041.35;;;18.40;39.25
51926;BME280;37952;51.938;15.480;2023-05-14T09:53:51;100036.83;;;18.49;39.17
51926;BME280;37952;51.938;15.480;2023-05-14T09:56:54;100031.82;;;18.56;39.03
51926;BME280;37952;51.938;15.480;2023-05-14T09:59:57;100028.69;;;18.60;38.99
51926;BME280;37952;51.938;15.480;2023-05-14T10:03:06;100021.70;;;18.63;38.71
51926;BME280;37952;51.938;15.480;2023-05-14T10:06:11;100018.21;;;18.70;38.78
51926;BME280;37952;51.938;15.480;2023-05-14T10:09:15;100021.66;;;18.83;39.00
51926;BME280;37952;51.938;15.480;2023-05-14T10:12:21;100016.95;;;18.96;39.11
51926;BME280;37952;51.938;15.480;2023-05-14T10:15:55;100013.85;;;19.06;38.96
51926;BME280;37952;51.938;15.480;2023-05-14T10:19:08;100014.27;;;19.14;38.85
51926;BME280;37952;51.938;15.480;2023-05-14T10:22:13;100010.09;;;19.18;39.01
51926;BME280;37952;51.938;15.480;2023-05-14T10:25:18;99999.16;;;19.22;38.79
51926;BME280;37952;51.938;15.480;2023-05-14T10:28:20;99997.91;;;19.26;38.86
51926;BME280;37952;51.938;15.480;2023-05-14T10:31:46;99998.13;;;19.32;38.65
51926;BME280;37952;51.938;15.480;2023-05-14T10:34:50;99995.25;;;19.40;38.96
51926;BME280;37952;51.938;15.480;2023-05-14T10:37:53;99994.04;;;19.41;38.60
51926;BME280;37952;51.938;15.480;2023-05-14T10:40:58;99988.98;;;19.34;38.65
51926;BME280;37952;51.938;15.480;2023-05-14T10:44:07;99985.06;;;19.32;38.82
51926;BME280;37952;51.938;15.480;2023-05-14T10:47:11;99987.04;;;19.28;38.63
51926;BME280;37952;51.938;15.480;2023-05-14T10:50:14;99985.97;;;19.26;38.40
51926;BME280;37952;51.938;15.480;2023-05-14T10:53:18;99979.28;;;19.27;38.51
51926;BME280;37952;51.938;15.480;2023-05-14T10:56:27;99980.30;;;19.27;38.14
51926;BME280;37952;51.938;15.480;2023-05-14T10:59:32;99980.18;;;19.26;37.99
51926;BME280;37952;51.938;15.480;2023-05-14T11:02:37;99975.15;;;19.21;37.65
51926;BME280;37952;51.938;15.480;2023-05-14T11:05:40;99966.27;;;19.23;37.65
51926;BME280;37952;51.938;15.480;2023-05-14T11:08:43;99962.17;;;19.32;37.80
51926;BME280;37952;51.938;15.480;2023-05-14T11:12:03;99958.95;;;19.49;37.91
51926;BME280;37952;51.938;15.480;2023-05-14T11:15:08;99951.65;;;19.68;37.47
51926;BME280;37952;51.938;15.480;2023-05-14T11:18:11;99950.09;;;19.75;37.15
51926;BME280;37952;51.938;15.480;2023-05-14T11:21:16;99950.69;;;19.61;37.06
51926;BME280;37952;51.938;15.480;2023-05-14T11:24:18;99948.20;;;19.32;37.36
51926;BME280;37952;51.938;15.480;2023-05-14T11:27:21;99951.61;;;19.11;37.89
51926;BME280;37952;51.938;15.480;2023-05-14T11:30:25;99950.73;;;18.85;38.09
51926;BME280;37952;51.938;15.480;2023-05-14T11:33:28;99947.09;;;18.65;38.43
51926;BME280;37952;51.938;15.480;2023-05-14T11:36:30;99944.98;;;18.55;38.75
51926;BME280;37952;51.938;15.480;2023-05-14T11:39:34;99941.15;;;18.43;38.94
51926;BME280;37952;51.938;15.480;2023-05-14T11:42:38;99944.02;;;18.35;39.16
51926;BME280;37952;51.938;15.480;2023-05-14T11:45:42;99939.33;;;18.32;39.25
51926;BME280;37952;51.938;15.480;2023-05-14T11:48:44;99936.23;;;18.26;39.11
51926;BME280;37952;51.938;15.480;2023-05-14T11:51:58;99936.34;;;18.21;39.30
51926;BME280;37952;51.938;15.480;2023-05-14T11:55:01;99932.67;;;18.12;39.47
51926;BME280;37952;51.938;15.480;2023-05-14T11:58:04;99928.09;;;18.05;39.57
51926;BME280;37952;51.938;15.480;2023-05-14T12:01:12;99918.98;;;18.01;39.76
51926;BME280;37952;51.938;15.480;2023-05-14T12:04:15;99920.06;;;18.03;39.94
51926;BME280;37952;51.938;15.480;2023-05-14T12:07:20;99922.39;;;18.12;40.05
51926;BME280;37952;51.938;15.480;2023-05-14T12:10:22;99914.48;;;18.44;40.00
51926;BME280;37952;51.938;15.480;2023-05-14T12:13:28;99913.20;;;18.88;39.73
51926;BME280;37952;51.938;15.480;2023-05-14T12:16:31;99912.09;;;19.19;39.32
51926;BME280;37952;51.938;15.480;2023-05-14T12:19:39;99909.55;;;19.33;39.10
51926;BME280;37952;51.938;15.480;2023-05-14T12:22:42;99906.06;;;19.34;38.94
51926;BME280;37952;51.938;15.480;2023-05-14T12:25:50;99904.16;;;19.29;38.67
51926;BME280;37952;51.938;15.480;2023-05-14T12:29:00;99906.49;;;19.23;38.87
51926;BME280;37952;51.938;15.480;2023-05-14T12:32:07;99899.45;;;19.17;38.84
51926;BME280;37952;51.938;15.480;2023-05-14T12:35:10;99897.91;;;19.08;38.92
51926;BME280;37952;51.938;15.480;2023-05-14T12:42:06;99891.35;;;18.92;38.98
51926;BME280;37952;51.938;15.480;2023-05-14T12:45:09;99885.68;;;19.07;39.31
51926;BME280;37952;51.938;15.480;2023-05-14T12:52:03;99875.34;;;20.32;38.47
51926;BME280;37952;51.938;15.480;2023-05-14T12:55:26;99876.77;;;20.59;37.67
51926;BME280;37952;51.938;15.480;2023-05-14T12:58:28;99871.75;;;20.54;37.16
51926;BME280;37952;51.938;15.480;2023-05-14T13:01:31;99876.94;;;20.39;37.27
51926;BME280;37952;51.938;15.480;2023-05-14T13:04:34;99877.76;;;20.24;37.54
51926;BME280;37952;51.938;15.480;2023-05-14T13:07:37;99879.62;;;20.03;37.29
51926;BME280;37952;51.938;15.480;2023-05-14T13:10:40;99873.14;;;19.77;37.46
51926;BME280;37952;51.938;15.480;2023-05-14T13:13:43;99870.11;;;19.73;38.11
51926;BME280;37952;51.938;15.480;2023-05-14T13:16:45;99869.33;;;19.68;37.53
51926;BME280;37952;51.938;15.480;2023-05-14T13:19:48;99865.58;;;19.56;37.82
51926;BME280;37952;51.938;15.480;2023-05-14T13:22:51;99865.49;;;19.49;37.87
51926;BME280;37952;51.938;15.480;2023-05-14T13:25:53;99860.23;;;19.44;37.88
51926;BME280;37952;51.938;15.480;2023-05-14T13:28:56;99852.38;;;19.46;38.15
51926;BME280;37952;51.938;15.480;2023-05-14T13:31:59;99848.48;;;19.49;37.89
51926;BME280;37952;51.938;15.480;2023-05-14T13:35:02;99844.18;;;19.55;37.85
51926;BME280;37952;51.938;15.480;2023-05-14T13:38:05;99842.73;;;19.62;37.91
51926;BME280;37952;51.938;15.480;2023-05-14T13:41:09;99840.64;;;19.69;37.76
51926;BME280;37952;51.938;15.480;2023-05-14T13:44:11;99838.94;;;19.66;37.74
51926;BME280;37952;51.938;15.480;2023-05-14T13:47:14;99831.33;;;19.57;37.64
51926;BME280;37952;51.938;15.480;2023-05-14T13:50:17;99832.27;;;19.47;37.72
51926;BME280;37952;51.938;15.480;2023-05-14T13:53:21;99829.51;;;19.38;37.66
51926;BME280;37952;51.938;15.480;2023-05-14T13:56:24;99832.21;;;19.32;38.04
51926;BME280;37952;51.938;15.480;2023-05-14T13:59:27;99829.66;;;19.26;37.70
51926;BME280;37952;51.938;15.480;2023-05-14T14:02:30;99827.10;;;19.15;37.42
51926;BME280;37952;51.938;15.480;2023-05-14T14:05:35;99817.40;;;19.08;37.73
51926;BME280;37952;51.938;15.480;2023-05-14T14:08:37;99815.76;;;19.04;37.72
51926;BME280;37952;51.938;15.480;2023-05-14T14:14:57;99805.48;;;19.01;37.54
51926;BME280;37952;51.938;15.480;2023-05-14T14:17:59;99804.86;;;19.02;37.47
51926;BME280;37952;51.938;15.480;2023-05-14T14:21:02;99800.31;;;19.03;37.37
51926;BME280;37952;51.938;15.480;2023-05-14T14:24:06;99800.89;;;19.04;37.60
51926;BME280;37952;51.938;15.480;2023-05-14T14:27:09;99798.98;;;19.10;37.58
51926;BME280;37952;51.938;15.480;2023-05-14T14:30:12;99795.54;;;19.16;37.70
51926;BME280;37952;51.938;15.480;2023-05-14T14:33:18;99787.48;;;19.25;37.50
51926;BME280;37952;51.938;15.480;2023-05-14T14:36:20;99783.04;;;19.36;37.49
51926;BME280;37952;51.938;15.480;2023-05-14T14:43:16;99776.80;;;19.96;37.64
51926;BME280;37952;51.938;15.480;2023-05-14T14:46:19;99770.93;;;20.81;36.85
51926;BME280;37952;51.938;15.480;2023-05-14T14:53:29;99764.46;;;22.70;35.05
51926;BME280;37952;51.938;15.480;2023-05-14T14:56:32;99761.58;;;23.32;34.00
51926;BME280;37952;51.938;15.480;2023-05-14T14:59:35;99755.19;;;23.66;33.38
51926;BME280;37952;51.938;15.480;2023-05-14T15:02:37;99752.38;;;24.01;32.71
51926;BME280;37952;51.938;15.480;2023-05-14T15:09:40;99747.58;;;24.62;31.76
51926;BME280;37952;51.938;15.480;2023-05-14T15:12:43;99742.85;;;24.53;30.74
51926;BME280;37952;51.938;15.480;2023-05-14T15:19:51;99737.06;;;24.66;31.41
51926;BME280;37952;51.938;15.480;2023-05-14T15:22:54;99735.80;;;24.80;31.18
51926;BME280;37952;51.938;15.480;2023-05-14T15:25:57;99728.33;;;24.72;31.27
51926;BME280;37952;51.938;15.480;2023-05-14T15:28:59;99721.27;;;24.45;30.95
51926;BME280;37952;51.938;15.480;2023-05-14T15:32:02;99718.81;;;24.90;31.67
51926;BME280;37952;51.938;15.480;2023-05-14T15:35:05;99716.05;;;25.81;30.67
51926;BME280;37952;51.938;15.480;2023-05-14T15:42:22;99717.02;;;27.60;29.01
51926;BME280;37952;51.938;15.480;2023-05-14T15:45:25;99714.52;;;28.18;27.52
51926;BME280;37952;51.938;15.480;2023-05-14T15:48:28;99710.96;;;28.47;26.56
51926;BME280;37952;51.938;15.480;2023-05-14T15:51:30;99713.33;;;28.76;26.82
51926;BME280;37952;51.938;15.480;2023-05-14T15:54:34;99709.19;;;29.29;26.36
51926;BME280;37952;51.938;15.480;2023-05-14T15:57:38;99708.73;;;29.79;25.74
51926;BME280;37952;51.938;15.480;2023-05-14T16:04:48;99698.06;;;30.23;25.74
51926;BME280;37952;51.938;15.480;2023-05-14T16:07:51;99692.77;;;29.89;24.60
51926;BME280;37952;51.938;15.480;2023-05-14T16:11:17;99693.79;;;28.71;25.39
51926;BME280;37952;51.938;15.480;2023-05-14T16:14:19;99693.52;;;28.14;26.53
51926;BME280;37952;51.938;15.480;2023-05-14T16:17:42;99688.41;;;28.39;26.29
51926;BME280;37952;51.938;15.480;2023-05-14T16:20:45;99687.36;;;28.60;26.27
51926;BME280;37952;51.938;15.480;2023-05-14T16:23:47;99687.73;;;28.85;25.65
51926;BME280;37952;51.938;15.480;2023-05-14T16:26:50;99679.86;;;29.23;25.80
51926;BME280;37952;51.938;15.480;2023-05-14T16:33:46;99675.42;;;29.23;24.99
51926;BME280;37952;51.938;15.480;2023-05-14T16:36:49;99673.32;;;29.38;25.18
51926;BME280;37952;51.938;15.480;2023-05-14T16:39:52;99675.98;;;29.64;24.81
51926;BME280;37952;51.938;15.480;2023-05-14T16:42:55;99672.42;;;29.65;24.79
51926;BME280;37952;51.938;15.480;2023-05-14T16:51:14;99662.15;;;28.92;25.13